sensor_id;sensor_type;location;lat;lon;timestamp;P1;durP1;ratioP1;P2;durP2;ratioP2
56997;SDS011;42890;44.244;22.530;2023-02-26T00:00:30;184.07;;;108.00;;
56997;SDS011;42890;44.244;22.530;2023-02-26T00:02:56;221.50;;;131.30;;
56997;SDS011;42890;44.244;22.530;2023-02-26T00:05:22;181.88;;;109.40;;
56997;SDS011;42890;44.244;22.530;2023-02-26T00:07:48;164.68;;;99.55;;
56997;SDS011;42890;44.244;22.530;2023-02-26T00:10:14;162.40;;;105.03;;
56997;SDS011;42890;44.244;22.530;2023-02-26T00:12:41;173.07;;;105.68;;
56997;SDS011;42890;44.244;22.530;2023-02-26T00:15:07;138.45;;;89.80;;
56997;SDS011;42890;44.244;22.530;2023-02-26T00:20:10;65.35;;;57.35;;
56997;SDS011;42890;44.244;22.530;2023-02-26T00:22:37;61.83;;;54.70;;
56997;SDS011;42890;44.244;22.530;2023-02-26T00:25:03;47.38;;;42.25;;
56997;SDS011;42890;44.244;22.530;2023-02-26T00:27:29;44.03;;;38.35;;
56997;SDS011;42890;44.244;22.530;2023-02-26T00:29:55;43.33;;;36.60;;
56997;SDS011;42890;44.244;22.530;2023-02-26T00:32:22;53.13;;;45.72;;
56997;SDS011;42890;44.244;22.530;2023-02-26T00:34:48;76.90;;;63.58;;
56997;SDS011;42890;44.244;22.530;2023-02-26T00:40:07;112.43;;;76.95;;
56997;SDS011;42890;44.244;22.530;2023-02-26T00:42:37;166.90;;;100.45;;
56997;SDS011;42890;44.244;22.530;2023-02-26T00:45:03;172.80;;;109.57;;
56997;SDS011;42890;44.244;22.530;2023-02-26T00:47:32;90.40;;;68.93;;
56997;SDS011;42890;44.244;22.530;2023-02-26T00:55:05;217.25;;;127.07;;
56997;SDS011;42890;44.244;22.530;2023-02-26T00:57:31;100.07;;;76.13;;
56997;SDS011;42890;44.244;22.530;2023-02-26T00:59:57;84.15;;;66.50;;
56997;SDS011;42890;44.244;22.530;2023-02-26T01:02:23;67.30;;;59.70;;
56997;SDS011;42890;44.244;22.530;2023-02-26T01:04:50;66.82;;;54.42;;
56997;SDS011;42890;44.244;22.530;2023-02-26T01:07:17;79.30;;;62.40;;
56997;SDS011;42890;44.244;22.530;2023-02-26T01:09:44;45.28;;;38.17;;
56997;SDS011;42890;44.244;22.530;2023-02-26T01:12:11;47.45;;;37.88;;
56997;SDS011;42890;44.244;22.530;2023-02-26T01:14:37;47.88;;;39.88;;
56997;SDS011;42890;44.244;22.530;2023-02-26T01:17:14;54.40;;;41.00;;
56997;SDS011;42890;44.244;22.530;2023-02-26T01:22:18;64.03;;;50.55;;
56997;SDS011;42890;44.244;22.530;2023-02-26T01:24:46;64.30;;;57.05;;
56997;SDS011;42890;44.244;22.530;2023-02-26T01:27:13;49.00;;;42.17;;
56997;SDS011;42890;44.244;22.530;2023-02-26T01:29:39;66.78;;;53.75;;
56997;SDS011;42890;44.244;22.530;2023-02-26T01:32:07;71.70;;;55.83;;
56997;SDS011;42890;44.244;22.530;2023-02-26T01:34:46;66.20;;;50.97;;
56997;SDS011;42890;44.244;22.530;2023-02-26T01:40:12;48.17;;;42.92;;
56997;SDS011;42890;44.244;22.530;2023-02-26T01:42:42;61.58;;;50.28;;
56997;SDS011;42890;44.244;22.530;2023-02-26T01:45:13;55.58;;;47.90;;
56997;SDS011;42890;44.244;22.530;2023-02-26T01:47:47;44.30;;;36.28;;
56997;SDS011;42890;44.244;22.530;2023-02-26T01:50:24;42.72;;;36.75;;
56997;SDS011;42890;44.244;22.530;2023-02-26T01:55:39;48.20;;;37.35;;
56997;SDS011;42890;44.244;22.530;2023-02-26T01:58:06;55.42;;;39.65;;
56997;SDS011;42890;44.244;22.530;2023-02-26T02:00:32;63.33;;;43.90;;
56997;SDS011;42890;44.244;22.530;2023-02-26T02:02:59;46.92;;;39.08;;
56997;SDS011;42890;44.244;22.530;2023-02-26T02:05:41;45.65;;;37.80;;
56997;SDS011;42890;44.244;22.530;2023-02-26T02:10:35;310.63;;;133.90;;
56997;SDS011;42890;44.244;22.530;2023-02-26T02:18:33;88.68;;;57.92;;
56997;SDS011;42890;44.244;22.530;2023-02-26T02:36:44;81.38;;;61.08;;
56997;SDS011;42890;44.244;22.530;2023-02-26T02:41:54;63.58;;;52.83;;
56997;SDS011;42890;44.244;22.530;2023-02-26T02:44:22;55.00;;;42.60;;
56997;SDS011;42890;44.244;22.530;2023-02-26T02:46:51;46.40;;;41.35;;
56997;SDS011;42890;44.244;22.530;2023-02-26T02:52:25;50.95;;;44.50;;
56997;SDS011;42890;44.244;22.530;2023-02-26T02:54:56;54.83;;;48.78;;
56997;SDS011;42890;44.244;22.530;2023-02-26T02:57:25;56.05;;;49.90;;
56997;SDS011;42890;44.244;22.530;2023-02-26T02:59:56;90.13;;;69.00;;
56997;SDS011;42890;44.244;22.530;2023-02-26T03:04:55;136.90;;;79.30;;
56997;SDS011;42890;44.244;22.530;2023-02-26T03:07:21;103.32;;;73.78;;
56997;SDS011;42890;44.244;22.530;2023-02-26T03:09:48;81.78;;;63.90;;
56997;SDS011;42890;44.244;22.530;2023-02-26T03:12:14;101.95;;;69.18;;
56997;SDS011;42890;44.244;22.530;2023-02-26T03:14:40;84.50;;;63.67;;
56997;SDS011;42890;44.244;22.530;2023-02-26T03:22:16;58.10;;;43.72;;
56997;SDS011;42890;44.244;22.530;2023-02-26T03:24:57;59.95;;;46.97;;
56997;SDS011;42890;44.244;22.530;2023-02-26T03:27:48;52.58;;;44.53;;
56997;SDS011;42890;44.244;22.530;2023-02-26T03:30:19;49.88;;;43.70;;
56997;SDS011;42890;44.244;22.530;2023-02-26T03:35:25;126.93;;;65.43;;
56997;SDS011;42890;44.244;22.530;2023-02-26T03:37:54;62.38;;;47.05;;
56997;SDS011;42890;44.244;22.530;2023-02-26T03:40:29;87.50;;;55.88;;
56997;SDS011;42890;44.244;22.530;2023-02-26T03:42:58;41.00;;;36.00;;
56997;SDS011;42890;44.244;22.530;2023-02-26T03:45:29;24.20;;;21.67;;
56997;SDS011;42890;44.244;22.530;2023-02-26T03:47:56;23.95;;;21.20;;
56997;SDS011;42890;44.244;22.530;2023-02-26T03:52:53;23.85;;;18.23;;
56997;SDS011;42890;44.244;22.530;2023-02-26T03:55:27;20.42;;;18.35;;
56997;SDS011;42890;44.244;22.530;2023-02-26T03:57:55;21.25;;;18.90;;
56997;SDS011;42890;44.244;22.530;2023-02-26T04:00:22;22.73;;;18.02;;
56997;SDS011;42890;44.244;22.530;2023-02-26T04:05:42;19.75;;;17.73;;
56997;SDS011;42890;44.244;22.530;2023-02-26T04:08:09;18.50;;;16.60;;
56997;SDS011;42890;44.244;22.530;2023-02-26T04:10:43;19.42;;;17.48;;
56997;SDS011;42890;44.244;22.530;2023-02-26T04:13:10;21.88;;;17.17;;
56997;SDS011;42890;44.244;22.530;2023-02-26T04:15:36;17.42;;;15.73;;
56997;SDS011;42890;44.244;22.530;2023-02-26T04:18:03;17.67;;;16.02;;
56997;SDS011;42890;44.244;22.530;2023-02-26T04:20:29;19.08;;;17.23;;
56997;SDS011;42890;44.244;22.530;2023-02-26T04:22:55;18.88;;;16.00;;
56997;SDS011;42890;44.244;22.530;2023-02-26T04:25:21;18.42;;;16.52;;
56997;SDS011;42890;44.244;22.530;2023-02-26T04:27:47;18.90;;;17.00;;
56997;SDS011;42890;44.244;22.530;2023-02-26T04:30:13;18.80;;;16.73;;
56997;SDS011;42890;44.244;22.530;2023-02-26T04:32:39;18.88;;;16.88;;
56997;SDS011;42890;44.244;22.530;2023-02-26T04:35:06;19.83;;;17.65;;
56997;SDS011;42890;44.244;22.530;2023-02-26T04:37:32;18.42;;;16.63;;
56997;SDS011;42890;44.244;22.530;2023-02-26T04:39:58;20.77;;;18.48;;
56997;SDS011;42890;44.244;22.530;2023-02-26T04:42:24;20.48;;;18.27;;
56997;SDS011;42890;44.244;22.530;2023-02-26T04:44:50;20.67;;;18.45;;
56997;SDS011;42890;44.244;22.530;2023-02-26T04:47:16;19.98;;;17.88;;
56997;SDS011;42890;44.244;22.530;2023-02-26T04:49:42;25.20;;;19.17;;
56997;SDS011;42890;44.244;22.530;2023-02-26T04:52:08;26.48;;;23.77;;
56997;SDS011;42890;44.244;22.530;2023-02-26T04:54:34;22.30;;;20.00;;
56997;SDS011;42890;44.244;22.530;2023-02-26T04:57:01;22.08;;;19.88;;
56997;SDS011;42890;44.244;22.530;2023-02-26T04:59:28;26.80;;;20.52;;
56997;SDS011;42890;44.244;22.530;2023-02-26T05:01:54;24.38;;;21.88;;
56997;SDS011;42890;44.244;22.530;2023-02-26T05:04:20;23.52;;;20.55;;
56997;SDS011;42890;44.244;22.530;2023-02-26T05:06:46;31.70;;;27.02;;
56997;SDS011;42890;44.244;22.530;2023-02-26T05:09:12;33.47;;;29.98;;
56997;SDS011;42890;44.244;22.530;2023-02-26T05:11:38;26.02;;;23.13;;
56997;SDS011;42890;44.244;22.530;2023-02-26T05:14:04;25.10;;;22.50;;
56997;SDS011;42890;44.244;22.530;2023-02-26T05:16:30;32.30;;;26.80;;
56997;SDS011;42890;44.244;22.530;2023-02-26T05:18:56;24.40;;;21.95;;
56997;SDS011;42890;44.244;22.530;2023-02-26T05:21:22;25.42;;;22.88;;
56997;SDS011;42890;44.244;22.530;2023-02-26T05:23:48;27.25;;;24.33;;
56997;SDS011;42890;44.244;22.530;2023-02-26T05:26:14;26.50;;;23.85;;
56997;SDS011;42890;44.244;22.530;2023-02-26T05:28:41;26.00;;;22.35;;
56997;SDS011;42890;44.244;22.530;2023-02-26T05:31:10;24.95;;;22.25;;
56997;SDS011;42890;44.244;22.530;2023-02-26T05:33:37;23.58;;;21.08;;
56997;SDS011;42890;44.244;22.530;2023-02-26T05:36:03;23.50;;;20.98;;
56997;SDS011;42890;44.244;22.530;2023-02-26T05:38:31;23.00;;;20.60;;
56997;SDS011;42890;44.244;22.530;2023-02-26T05:40:57;21.58;;;19.42;;
56997;SDS011;42890;44.244;22.530;2023-02-26T05:43:23;22.40;;;20.10;;
56997;SDS011;42890;44.244;22.530;2023-02-26T05:45:50;23.55;;;20.52;;
56997;SDS011;42890;44.244;22.530;2023-02-26T05:48:16;22.02;;;19.73;;
56997;SDS011;42890;44.244;22.530;2023-02-26T05:50:43;20.60;;;18.52;;
56997;SDS011;42890;44.244;22.530;2023-02-26T05:53:09;21.33;;;19.10;;
56997;SDS011;42890;44.244;22.530;2023-02-26T05:55:35;22.60;;;19.63;;
56997;SDS011;42890;44.244;22.530;2023-02-26T05:58:01;21.80;;;19.45;;
56997;SDS011;42890;44.244;22.530;2023-02-26T06:00:27;22.75;;;20.35;;
56997;SDS011;42890;44.244;22.530;2023-02-26T06:02:53;22.50;;;20.10;;
56997;SDS011;42890;44.244;22.530;2023-02-26T06:05:20;22.90;;;19.63;;
56997;SDS011;42890;44.244;22.530;2023-02-26T06:07:46;21.42;;;18.88;;
56997;SDS011;42890;44.244;22.530;2023-02-26T06:10:12;23.98;;;20.38;;
56997;SDS011;42890;44.244;22.530;2023-02-26T06:12:38;21.27;;;19.33;;
56997;SDS011;42890;44.244;22.530;2023-02-26T06:15:05;22.05;;;19.83;;
56997;SDS011;42890;44.244;22.530;2023-02-26T06:17:32;21.70;;;19.35;;
56997;SDS011;42890;44.244;22.530;2023-02-26T06:19:58;21.55;;;18.80;;
56997;SDS011;42890;44.244;22.530;2023-02-26T06:22:24;24.77;;;21.45;;
56997;SDS011;42890;44.244;22.530;2023-02-26T06:24:50;24.70;;;21.70;;
56997;SDS011;42890;44.244;22.530;2023-02-26T06:27:16;25.23;;;22.52;;
56997;SDS011;42890;44.244;22.530;2023-02-26T06:29:42;21.20;;;18.83;;
56997;SDS011;42890;44.244;22.530;2023-02-26T06:32:08;21.15;;;19.05;;
56997;SDS011;42890;44.244;22.530;2023-02-26T06:34:34;21.65;;;18.67;;
56997;SDS011;42890;44.244;22.530;2023-02-26T06:37:00;20.70;;;18.65;;
56997;SDS011;42890;44.244;22.530;2023-02-26T06:39:26;19.85;;;17.95;;
56997;SDS011;42890;44.244;22.530;2023-02-26T06:41:53;20.00;;;17.98;;
56997;SDS011;42890;44.244;22.530;2023-02-26T06:44:19;21.52;;;18.70;;
56997;SDS011;42890;44.244;22.530;2023-02-26T06:46:45;20.17;;;18.27;;
56997;SDS011;42890;44.244;22.530;2023-02-26T06:49:11;21.92;;;19.13;;
56997;SDS011;42890;44.244;22.530;2023-02-26T06:51:37;19.98;;;17.95;;
56997;SDS011;42890;44.244;22.530;2023-02-26T06:54:03;22.73;;;20.42;;
56997;SDS011;42890;44.244;22.530;2023-02-26T06:56:29;23.95;;;19.77;;
56997;SDS011;42890;44.244;22.530;2023-02-26T06:58:55;22.35;;;20.08;;
56997;SDS011;42890;44.244;22.530;2023-02-26T07:01:21;22.65;;;20.25;;
56997;SDS011;42890;44.244;22.530;2023-02-26T07:03:48;22.63;;;20.40;;
56997;SDS011;42890;44.244;22.530;2023-02-26T07:06:14;23.65;;;21.35;;
56997;SDS011;42890;44.244;22.530;2023-02-26T07:08:40;23.33;;;21.13;;
56997;SDS011;42890;44.244;22.530;2023-02-26T07:11:07;23.63;;;21.13;;
56997;SDS011;42890;44.244;22.530;2023-02-26T07:13:34;22.98;;;20.60;;
56997;SDS011;42890;44.244;22.530;2023-02-26T07:16:01;23.88;;;21.20;;
56997;SDS011;42890;44.244;22.530;2023-02-26T07:18:27;23.45;;;20.95;;
56997;SDS011;42890;44.244;22.530;2023-02-26T07:20:53;22.92;;;20.73;;
56997;SDS011;42890;44.244;22.530;2023-02-26T07:23:19;23.42;;;21.13;;
56997;SDS011;42890;44.244;22.530;2023-02-26T07:25:47;23.63;;;21.13;;
56997;SDS011;42890;44.244;22.530;2023-02-26T07:28:13;23.05;;;20.65;;
56997;SDS011;42890;44.244;22.530;2023-02-26T07:30:39;23.95;;;21.48;;
56997;SDS011;42890;44.244;22.530;2023-02-26T07:33:07;24.40;;;21.90;;
56997;SDS011;42890;44.244;22.530;2023-02-26T07:35:33;29.60;;;23.38;;
56997;SDS011;42890;44.244;22.530;2023-02-26T07:37:59;24.15;;;21.75;;
56997;SDS011;42890;44.244;22.530;2023-02-26T07:40:25;26.13;;;23.45;;
56997;SDS011;42890;44.244;22.530;2023-02-26T07:42:51;26.27;;;23.55;;
56997;SDS011;42890;44.244;22.530;2023-02-26T07:45:17;29.52;;;24.85;;
56997;SDS011;42890;44.244;22.530;2023-02-26T07:47:47;27.55;;;24.33;;
56997;SDS011;42890;44.244;22.530;2023-02-26T07:50:13;27.15;;;24.17;;
56997;SDS011;42890;44.244;22.530;2023-02-26T07:52:39;26.58;;;23.77;;
56997;SDS011;42890;44.244;22.530;2023-02-26T07:55:07;27.77;;;24.65;;
56997;SDS011;42890;44.244;22.530;2023-02-26T07:57:37;25.63;;;22.88;;
56997;SDS011;42890;44.244;22.530;2023-02-26T08:00:04;26.88;;;24.08;;
56997;SDS011;42890;44.244;22.530;2023-02-26T08:02:30;27.10;;;24.20;;
56997;SDS011;42890;44.244;22.530;2023-02-26T08:04:56;30.58;;;25.38;;
56997;SDS011;42890;44.244;22.530;2023-02-26T08:07:22;29.48;;;24.90;;
56997;SDS011;42890;44.244;22.530;2023-02-26T08:09:49;30.45;;;26.33;;
56997;SDS011;42890;44.244;22.530;2023-02-26T08:12:15;30.08;;;25.65;;
56997;SDS011;42890;44.244;22.530;2023-02-26T08:14:41;30.85;;;24.90;;
56997;SDS011;42890;44.244;22.530;2023-02-26T08:17:07;30.45;;;25.75;;
56997;SDS011;42890;44.244;22.530;2023-02-26T08:19:34;31.67;;;27.88;;
56997;SDS011;42890;44.244;22.530;2023-02-26T08:22:00;35.30;;;30.08;;
56997;SDS011;42890;44.244;22.530;2023-02-26T08:24:26;31.75;;;27.27;;
56997;SDS011;42890;44.244;22.530;2023-02-26T08:26:52;33.47;;;29.52;;
56997;SDS011;42890;44.244;22.530;2023-02-26T08:29:18;36.20;;;28.48;;
56997;SDS011;42890;44.244;22.530;2023-02-26T08:31:44;35.05;;;31.38;;
56997;SDS011;42890;44.244;22.530;2023-02-26T08:34:11;48.22;;;36.25;;
56997;SDS011;42890;44.244;22.530;2023-02-26T08:36:37;43.97;;;34.47;;
56997;SDS011;42890;44.244;22.530;2023-02-26T08:39:04;45.25;;;35.85;;
56997;SDS011;42890;44.244;22.530;2023-02-26T08:41:31;45.90;;;36.72;;
56997;SDS011;42890;44.244;22.530;2023-02-26T08:44:00;48.30;;;34.15;;
56997;SDS011;42890;44.244;22.530;2023-02-26T08:46:26;42.35;;;32.83;;
56997;SDS011;42890;44.244;22.530;2023-02-26T08:48:52;38.15;;;32.88;;
56997;SDS011;42890;44.244;22.530;2023-02-26T08:51:19;38.08;;;32.38;;
56997;SDS011;42890;44.244;22.530;2023-02-26T08:53:45;36.35;;;30.98;;
56997;SDS011;42890;44.244;22.530;2023-02-26T08:56:13;40.13;;;32.67;;
56997;SDS011;42890;44.244;22.530;2023-02-26T08:58:40;37.42;;;30.65;;
56997;SDS011;42890;44.244;22.530;2023-02-26T09:01:06;35.47;;;31.77;;
56997;SDS011;42890;44.244;22.530;2023-02-26T09:03:32;38.60;;;32.45;;
56997;SDS011;42890;44.244;22.530;2023-02-26T09:05:58;38.67;;;32.58;;
56997;SDS011;42890;44.244;22.530;2023-02-26T09:08:24;89.38;;;62.88;;
56997;SDS011;42890;44.244;22.530;2023-02-26T09:10:50;37.70;;;33.03;;
56997;SDS011;42890;44.244;22.530;2023-02-26T09:13:17;53.65;;;42.50;;
56997;SDS011;42890;44.244;22.530;2023-02-26T09:15:43;37.33;;;33.30;;
56997;SDS011;42890;44.244;22.530;2023-02-26T09:18:09;43.83;;;36.40;;
56997;SDS011;42890;44.244;22.530;2023-02-26T09:20:40;32.47;;;28.98;;
56997;SDS011;42890;44.244;22.530;2023-02-26T09:23:06;29.88;;;26.42;;
56997;SDS011;42890;44.244;22.530;2023-02-26T09:25:32;31.20;;;26.67;;
56997;SDS011;42890;44.244;22.530;2023-02-26T09:27:58;33.35;;;28.45;;
56997;SDS011;42890;44.244;22.530;2023-02-26T09:30:25;29.73;;;26.52;;
56997;SDS011;42890;44.244;22.530;2023-02-26T09:32:51;38.33;;;32.97;;
56997;SDS011;42890;44.244;22.530;2023-02-26T09:35:17;31.17;;;27.38;;
56997;SDS011;42890;44.244;22.530;2023-02-26T09:37:43;31.90;;;25.38;;
56997;SDS011;42890;44.244;22.530;2023-02-26T09:40:19;23.13;;;19.73;;
56997;SDS011;42890;44.244;22.530;2023-02-26T09:42:51;15.38;;;13.77;;
56997;SDS011;42890;44.244;22.530;2023-02-26T09:45:26;19.50;;;15.07;;
56997;SDS011;42890;44.244;22.530;2023-02-26T09:47:54;40.10;;;26.17;;
56997;SDS011;42890;44.244;22.530;2023-02-26T09:50:22;25.95;;;19.05;;
56997;SDS011;42890;44.244;22.530;2023-02-26T09:52:57;16.85;;;12.95;;
56997;SDS011;42890;44.244;22.530;2023-02-26T09:55:29;16.23;;;13.02;;
56997;SDS011;42890;44.244;22.530;2023-02-26T09:57:58;23.00;;;15.68;;
56997;SDS011;42890;44.244;22.530;2023-02-26T10:00:30;23.60;;;16.05;;
56997;SDS011;42890;44.244;22.530;2023-02-26T10:07:59;46.50;;;33.45;;
56997;SDS011;42890;44.244;22.530;2023-02-26T10:13:17;106.55;;;41.67;;
56997;SDS011;42890;44.244;22.530;2023-02-26T10:15:46;103.65;;;40.28;;
56997;SDS011;42890;44.244;22.530;2023-02-26T10:18:14;168.48;;;58.53;;
56997;SDS011;42890;44.244;22.530;2023-02-26T10:23:17;28.67;;;22.77;;
56997;SDS011;42890;44.244;22.530;2023-02-26T10:25:46;74.57;;;34.83;;
56997;SDS011;42890;44.244;22.530;2023-02-26T10:30:49;45.72;;;39.63;;
56997;SDS011;42890;44.244;22.530;2023-02-26T10:35:46;32.38;;;26.00;;
56997;SDS011;42890;44.244;22.530;2023-02-26T10:38:17;120.03;;;50.28;;
56997;SDS011;42890;44.244;22.530;2023-02-26T10:40:46;37.03;;;22.00;;
56997;SDS011;42890;44.244;22.530;2023-02-26T10:51:00;19.50;;;15.80;;
56997;SDS011;42890;44.244;22.530;2023-02-26T10:53:31;21.67;;;14.98;;
56997;SDS011;42890;44.244;22.530;2023-02-26T10:56:14;19.15;;;13.48;;
56997;SDS011;42890;44.244;22.530;2023-02-26T10:58:41;26.85;;;17.60;;
56997;SDS011;42890;44.244;22.530;2023-02-26T11:01:19;13.75;;;10.25;;
56997;SDS011;42890;44.244;22.530;2023-02-26T11:03:46;15.55;;;13.77;;
56997;SDS011;42890;44.244;22.530;2023-02-26T11:06:19;35.08;;;25.58;;
56997;SDS011;42890;44.244;22.530;2023-02-26T11:08:48;52.03;;;46.78;;
56997;SDS011;42890;44.244;22.530;2023-02-26T11:14:00;40.58;;;34.13;;
56997;SDS011;42890;44.244;22.530;2023-02-26T11:16:26;24.45;;;21.67;;
56997;SDS011;42890;44.244;22.530;2023-02-26T11:18:54;13.13;;;11.40;;
56997;SDS011;42890;44.244;22.530;2023-02-26T11:21:21;12.10;;;10.82;;
56997;SDS011;42890;44.244;22.530;2023-02-26T11:23:49;13.93;;;11.95;;
56997;SDS011;42890;44.244;22.530;2023-02-26T11:26:17;11.20;;;10.15;;
56997;SDS011;42890;44.244;22.530;2023-02-26T11:28:44;16.98;;;15.23;;
56997;SDS011;42890;44.244;22.530;2023-02-26T11:31:11;12.68;;;9.93;;
56997;SDS011;42890;44.244;22.530;2023-02-26T11:36:18;25.92;;;20.83;;
56997;SDS011;42890;44.244;22.530;2023-02-26T11:38:45;24.45;;;19.10;;
56997;SDS011;42890;44.244;22.530;2023-02-26T11:41:12;18.63;;;16.23;;
56997;SDS011;42890;44.244;22.530;2023-02-26T11:43:39;20.20;;;15.50;;
56997;SDS011;42890;44.244;22.530;2023-02-26T11:46:06;12.30;;;10.65;;
56997;SDS011;42890;44.244;22.530;2023-02-26T11:48:47;14.88;;;13.50;;
56997;SDS011;42890;44.244;22.530;2023-02-26T11:51:15;24.45;;;21.88;;
56997;SDS011;42890;44.244;22.530;2023-02-26T11:53:47;20.90;;;18.77;;
56997;SDS011;42890;44.244;22.530;2023-02-26T11:56:24;227.27;;;68.75;;
56997;SDS011;42890;44.244;22.530;2023-02-26T11:58:51;159.43;;;61.97;;
56997;SDS011;42890;44.244;22.530;2023-02-26T12:01:19;118.30;;;52.63;;
56997;SDS011;42890;44.244;22.530;2023-02-26T12:03:49;40.20;;;28.13;;
56997;SDS011;42890;44.244;22.530;2023-02-26T12:06:18;74.72;;;35.45;;
56997;SDS011;42890;44.244;22.530;2023-02-26T12:08:44;25.55;;;19.25;;
56997;SDS011;42890;44.244;22.530;2023-02-26T12:16:14;12.30;;;9.70;;
56997;SDS011;42890;44.244;22.530;2023-02-26T12:18:49;94.95;;;45.38;;
56997;SDS011;42890;44.244;22.530;2023-02-26T12:31:30;6.80;;;6.07;;
56997;SDS011;42890;44.244;22.530;2023-02-26T12:44:30;7.93;;;4.40;;
56997;SDS011;42890;44.244;22.530;2023-02-26T12:49:58;6.40;;;5.80;;
56997;SDS011;42890;44.244;22.530;2023-02-26T12:57:27;7.90;;;7.20;;
56997;SDS011;42890;44.244;22.530;2023-02-26T13:10:50;39.95;;;22.40;;
56997;SDS011;42890;44.244;22.530;2023-02-26T13:16:11;45.42;;;29.48;;
56997;SDS011;42890;44.244;22.530;2023-02-26T13:21:13;17.77;;;11.18;;
56997;SDS011;42890;44.244;22.530;2023-02-26T13:23:48;27.13;;;19.88;;
56997;SDS011;42890;44.244;22.530;2023-02-26T13:26:15;30.13;;;24.60;;
56997;SDS011;42890;44.244;22.530;2023-02-26T13:29:16;35.88;;;24.73;;
56997;SDS011;42890;44.244;22.530;2023-02-26T13:31:37;58.20;;;40.65;;
56997;SDS011;42890;44.244;22.530;2023-02-26T13:34:10;45.88;;;31.88;;
56997;SDS011;42890;44.244;22.530;2023-02-26T13:36:38;47.05;;;33.85;;
56997;SDS011;42890;44.244;22.530;2023-02-26T13:39:12;51.35;;;32.65;;
56997;SDS011;42890;44.244;22.530;2023-02-26T13:44:17;94.78;;;47.55;;
56997;SDS011;42890;44.244;22.530;2023-02-26T13:51:55;158.75;;;67.97;;
56997;SDS011;42890;44.244;22.530;2023-02-26T13:59:25;71.53;;;36.30;;
56997;SDS011;42890;44.244;22.530;2023-02-26T14:01:55;82.18;;;39.47;;
56997;SDS011;42890;44.244;22.530;2023-02-26T14:04:25;72.65;;;39.95;;
56997;SDS011;42890;44.244;22.530;2023-02-26T14:14:41;34.47;;;22.73;;
56997;SDS011;42890;44.244;22.530;2023-02-26T14:19:38;70.65;;;32.53;;
56997;SDS011;42890;44.244;22.530;2023-02-26T14:32:38;51.90;;;30.05;;
56997;SDS011;42890;44.244;22.530;2023-02-26T14:35:10;28.23;;;19.50;;
56997;SDS011;42890;44.244;22.530;2023-02-26T14:37:37;21.75;;;15.48;;
56997;SDS011;42890;44.244;22.530;2023-02-26T14:40:16;20.23;;;15.98;;
56997;SDS011;42890;44.244;22.530;2023-02-26T14:42:45;14.98;;;11.20;;
56997;SDS011;42890;44.244;22.530;2023-02-26T14:47:43;14.68;;;11.63;;
56997;SDS011;42890;44.244;22.530;2023-02-26T14:50:13;16.92;;;11.57;;
56997;SDS011;42890;44.244;22.530;2023-02-26T15:00:35;20.83;;;16.02;;
56997;SDS011;42890;44.244;22.530;2023-02-26T15:05:53;15.52;;;13.02;;
56997;SDS011;42890;44.244;22.530;2023-02-26T15:08:36;17.33;;;13.48;;
56997;SDS011;42890;44.244;22.530;2023-02-26T15:19:32;16.65;;;13.95;;
56997;SDS011;42890;44.244;22.530;2023-02-26T15:24:34;16.60;;;14.15;;
56997;SDS011;42890;44.244;22.530;2023-02-26T15:27:01;14.48;;;12.68;;
56997;SDS011;42890;44.244;22.530;2023-02-26T15:29:29;17.55;;;15.75;;
56997;SDS011;42890;44.244;22.530;2023-02-26T15:31:57;16.83;;;15.05;;
56997;SDS011;42890;44.244;22.530;2023-02-26T15:34:25;39.65;;;29.73;;
56997;SDS011;42890;44.244;22.530;2023-02-26T15:36:51;34.90;;;26.92;;
56997;SDS011;42890;44.244;22.530;2023-02-26T15:39:22;213.48;;;106.78;;
56997;SDS011;42890;44.244;22.530;2023-02-26T15:41:49;216.95;;;98.80;;
56997;SDS011;42890;44.244;22.530;2023-02-26T15:44:17;273.35;;;105.72;;
56997;SDS011;42890;44.244;22.530;2023-02-26T15:46:45;130.85;;;59.25;;
56997;SDS011;42890;44.244;22.530;2023-02-26T15:49:14;100.45;;;48.58;;
56997;SDS011;42890;44.244;22.530;2023-02-26T15:51:42;34.45;;;23.42;;
56997;SDS011;42890;44.244;22.530;2023-02-26T15:54:13;34.22;;;24.80;;
56997;SDS011;42890;44.244;22.530;2023-02-26T15:56:41;26.05;;;22.25;;
56997;SDS011;42890;44.244;22.530;2023-02-26T15:59:09;30.25;;;23.45;;
56997;SDS011;42890;44.244;22.530;2023-02-26T16:01:38;34.08;;;27.33;;
56997;SDS011;42890;44.244;22.530;2023-02-26T16:04:06;34.40;;;25.42;;
56997;SDS011;42890;44.244;22.530;2023-02-26T16:06:36;23.40;;;19.83;;
56997;SDS011;42890;44.244;22.530;2023-02-26T16:09:03;21.33;;;19.13;;
56997;SDS011;42890;44.244;22.530;2023-02-26T16:11:37;18.92;;;16.92;;
56997;SDS011;42890;44.244;22.530;2023-02-26T16:14:05;19.15;;;17.15;;
56997;SDS011;42890;44.244;22.530;2023-02-26T16:16:38;19.75;;;17.70;;
56997;SDS011;42890;44.244;22.530;2023-02-26T16:19:05;17.95;;;16.15;;
56997;SDS011;42890;44.244;22.530;2023-02-26T16:21:35;17.83;;;16.13;;
56997;SDS011;42890;44.244;22.530;2023-02-26T16:24:03;18.92;;;17.00;;
56997;SDS011;42890;44.244;22.530;2023-02-26T16:26:31;17.40;;;15.63;;
56997;SDS011;42890;44.244;22.530;2023-02-26T16:29:02;18.23;;;15.70;;
56997;SDS011;42890;44.244;22.530;2023-02-26T16:31:29;16.17;;;14.57;;
56997;SDS011;42890;44.244;22.530;2023-02-26T16:34:04;28.55;;;25.13;;
56997;SDS011;42890;44.244;22.530;2023-02-26T16:36:36;76.18;;;54.10;;
56997;SDS011;42890;44.244;22.530;2023-02-26T16:41:36;162.77;;;99.82;;
56997;SDS011;42890;44.244;22.530;2023-02-26T16:44:03;346.42;;;154.40;;
56997;SDS011;42890;44.244;22.530;2023-02-26T16:46:33;58.63;;;32.20;;
56997;SDS011;42890;44.244;22.530;2023-02-26T16:49:07;76.70;;;34.58;;
56997;SDS011;42890;44.244;22.530;2023-02-26T16:51:35;67.55;;;36.65;;
56997;SDS011;42890;44.244;22.530;2023-02-26T16:54:07;74.07;;;38.75;;
56997;SDS011;42890;44.244;22.530;2023-02-26T16:56:35;55.67;;;33.00;;
56997;SDS011;42890;44.244;22.530;2023-02-26T16:59:04;102.80;;;44.08;;
56997;SDS011;42890;44.244;22.530;2023-02-26T17:01:36;47.13;;;29.27;;
56997;SDS011;42890;44.244;22.530;2023-02-26T17:04:02;76.20;;;36.83;;
56997;SDS011;42890;44.244;22.530;2023-02-26T17:06:29;64.45;;;34.40;;
56997;SDS011;42890;44.244;22.530;2023-02-26T17:08:56;59.03;;;33.90;;
56997;SDS011;42890;44.244;22.530;2023-02-26T17:16:33;66.22;;;37.05;;
56997;SDS011;42890;44.244;22.530;2023-02-26T17:18:59;63.60;;;34.22;;
56997;SDS011;42890;44.244;22.530;2023-02-26T17:21:26;75.05;;;41.80;;
56997;SDS011;42890;44.244;22.530;2023-02-26T17:23:53;93.53;;;43.55;;
56997;SDS011;42890;44.244;22.530;2023-02-26T17:26:19;92.53;;;42.53;;
56997;SDS011;42890;44.244;22.530;2023-02-26T17:28:45;100.55;;;39.88;;
56997;SDS011;42890;44.244;22.530;2023-02-26T17:31:11;56.78;;;29.23;;
56997;SDS011;42890;44.244;22.530;2023-02-26T17:33:39;52.05;;;26.63;;
56997;SDS011;42890;44.244;22.530;2023-02-26T17:36:06;38.08;;;22.20;;
56997;SDS011;42890;44.244;22.530;2023-02-26T17:38:32;28.42;;;19.10;;
56997;SDS011;42890;44.244;22.530;2023-02-26T17:40:58;42.55;;;27.83;;